EWG299 EDDS-EDDG
Flight info
| Callsign | EWG299 |
|---|---|
| Flight time | 0h 44m |
| Altitude | 22000 |
| Route | TAGIK2H/07 TAGIK Z3 KETEG/N0392F240 Z3 ABUMO N850 GISEM Z505 ARPEG Z850 BADGO/N0325F100 Z850 HMM DCT |
| Aircraft | A20N/M-SDE2E3FGHIRWXY/LB1 |
Departure
| Time | 2026-05-08 20:35 |
|---|---|
| Airport | Stuttgart Airport (EDDS) |
Arrival
| Time | 2026-05-08 21:19 |
|---|---|
| Airport | Münster Osnabrück Airport (EDDG) |
| Time | Latitude | Longitude | Altitude | Speed | Heading |
|---|---|---|---|---|---|
| 2026-05-08 20:13 | 48.68957 | 9.19715 | 1304 ft | 0 kts | 344° |
| 2026-05-08 20:26 | 48.68947 | 9.19719 | 1303 ft | 3 kts | 344° |
| 2026-05-08 20:26 | 48.68928 | 9.19727 | 1301 ft | 3 kts | 344° |
| 2026-05-08 20:26 | 48.68909 | 9.19735 | 1300 ft | 3 kts | 344° |
| 2026-05-08 20:27 | 48.68890 | 9.19738 | 1299 ft | 3 kts | 18° |
| 2026-05-08 20:27 | 48.68882 | 9.19734 | 1298 ft | 0 kts | 28° |
| 2026-05-08 20:29 | 48.68876 | 9.19727 | 1298 ft | 3 kts | 44° |
| 2026-05-08 20:29 | 48.68868 | 9.19713 | 1276 ft | 0 kts | 71° |
| 2026-05-08 20:32 | 48.68873 | 9.19737 | 1289 ft | 13 kts | 72° |
| 2026-05-08 20:32 | 48.68860 | 9.19846 | 1293 ft | 8 kts | 133° |
| 2026-05-08 20:33 | 48.68810 | 9.19922 | 1289 ft | 12 kts | 143° |
| 2026-05-08 20:33 | 48.68730 | 9.19968 | 1288 ft | 10 kts | 165° |
| 2026-05-08 20:33 | 48.68722 | 9.19971 | 1288 ft | 6 kts | 165° |
| 2026-05-08 20:33 | 48.68621 | 9.20039 | 1288 ft | 19 kts | 134° |
| 2026-05-08 20:34 | 48.68614 | 9.20232 | 1286 ft | 23 kts | 72° |
| 2026-05-08 20:34 | 48.68718 | 9.20754 | 1274 ft | 85 kts | 73° |
| 2026-05-08 20:34 | 48.69215 | 9.23533 | 1693 ft | 153 kts | 72° |
| 2026-05-08 20:35 | 48.69534 | 9.25158 | 2237 ft | 175 kts | 74° |
| 2026-05-08 20:35 | 48.69889 | 9.27067 | 2679 ft | 199 kts | 75° |
| 2026-05-08 20:35 | 48.70272 | 9.29116 | 3359 ft | 209 kts | 75° |
| 2026-05-08 20:35 | 48.70687 | 9.31295 | 4091 ft | 220 kts | 75° |
| 2026-05-08 20:36 | 48.71132 | 9.33625 | 4709 ft | 242 kts | 76° |
| 2026-05-08 20:36 | 48.71627 | 9.36203 | 4967 ft | 264 kts | 75° |
| 2026-05-08 20:36 | 48.72160 | 9.38887 | 5014 ft | 268 kts | 72° |
| 2026-05-08 20:36 | 48.73038 | 9.41372 | 5014 ft | 270 kts | 51° |
| 2026-05-08 20:37 | 48.74512 | 9.43047 | 5101 ft | 270 kts | 22° |
| 2026-05-08 20:37 | 48.76342 | 9.43544 | 5845 ft | 265 kts | 1° |
| 2026-05-08 20:37 | 48.78138 | 9.43388 | 7060 ft | 252 kts | 347° |
| 2026-05-08 20:37 | 48.79765 | 9.42572 | 8164 ft | 243 kts | 334° |
| 2026-05-08 20:38 | 48.81285 | 9.41493 | 9131 ft | 240 kts | 330° |
| 2026-05-08 20:38 | 48.82787 | 9.40363 | 10015 ft | 241 kts | 330° |
| 2026-05-08 20:38 | 48.84300 | 9.39223 | 10798 ft | 245 kts | 330° |
| 2026-05-08 20:38 | 48.85845 | 9.38067 | 11531 ft | 249 kts | 331° |
| 2026-05-08 20:39 | 48.87402 | 9.36909 | 12272 ft | 254 kts | 331° |
| 2026-05-08 20:39 | 48.88963 | 9.35621 | 13030 ft | 257 kts | 323° |
| 2026-05-08 20:39 | 48.90327 | 9.33862 | 13760 ft | 259 kts | 308° |
| 2026-05-08 20:39 | 48.91324 | 9.31584 | 14435 ft | 259 kts | 292° |
| 2026-05-08 20:40 | 48.91732 | 9.29873 | 14891 ft | 259 kts | 282° |
| 2026-05-08 20:40 | 48.92096 | 9.27182 | 15594 ft | 260 kts | 278° |
| 2026-05-08 20:40 | 48.92472 | 9.23562 | 16499 ft | 262 kts | 277° |
| 2026-05-08 20:40 | 48.92657 | 9.21735 | 16952 ft | 264 kts | 277° |
| 2026-05-08 20:41 | 48.93038 | 9.18047 | 17871 ft | 267 kts | 277° |
| 2026-05-08 20:41 | 48.93237 | 9.16154 | 18344 ft | 269 kts | 277° |
| 2026-05-08 20:41 | 48.93531 | 9.13366 | 18940 ft | 271 kts | 277° |
| 2026-05-08 20:41 | 48.93834 | 9.10504 | 19544 ft | 274 kts | 277° |
| 2026-05-08 20:42 | 48.94141 | 9.07616 | 20150 ft | 277 kts | 277° |
| 2026-05-08 20:42 | 48.94460 | 9.04699 | 20751 ft | 280 kts | 279° |
| 2026-05-08 20:42 | 48.94967 | 9.01843 | 21318 ft | 285 kts | 289° |
| 2026-05-08 20:42 | 48.95855 | 8.99110 | 21814 ft | 293 kts | 301° |
| 2026-05-08 20:43 | 48.97181 | 8.96620 | 21988 ft | 314 kts | 314° |
| 2026-05-08 20:43 | 48.98996 | 8.94554 | 21993 ft | 339 kts | 329° |
| 2026-05-08 20:43 | 49.01234 | 8.93193 | 21993 ft | 363 kts | 344° |
| 2026-05-08 20:43 | 49.03824 | 8.92771 | 21995 ft | 387 kts | 359° |
| 2026-05-08 20:44 | 49.06584 | 8.93038 | 21994 ft | 407 kts | 4° |
| 2026-05-08 20:44 | 49.09474 | 8.93470 | 21993 ft | 422 kts | 4° |
| 2026-05-08 20:44 | 49.12419 | 8.93920 | 21997 ft | 426 kts | 4° |
| 2026-05-08 20:44 | 49.15378 | 8.94359 | 22001 ft | 426 kts | 4° |
| 2026-05-08 20:45 | 49.18293 | 8.94779 | 22002 ft | 426 kts | 4° |
| 2026-05-08 20:45 | 49.21247 | 8.95200 | 22003 ft | 426 kts | 4° |
| 2026-05-08 20:45 | 49.24199 | 8.95618 | 22005 ft | 426 kts | 4° |
| 2026-05-08 20:45 | 49.27158 | 8.96036 | 22009 ft | 425 kts | 4° |
| 2026-05-08 20:46 | 49.30109 | 8.96451 | 22009 ft | 425 kts | 4° |
| 2026-05-08 20:46 | 49.33025 | 8.96859 | 22009 ft | 425 kts | 4° |
| 2026-05-08 20:46 | 49.35977 | 8.97273 | 22009 ft | 425 kts | 4° |
| 2026-05-08 20:46 | 49.38935 | 8.97688 | 22010 ft | 425 kts | 4° |
| 2026-05-08 20:47 | 49.41883 | 8.98101 | 22014 ft | 425 kts | 4° |
| 2026-05-08 20:47 | 49.44831 | 8.98515 | 22014 ft | 425 kts | 4° |
| 2026-05-08 20:47 | 49.47747 | 8.98924 | 22014 ft | 425 kts | 4° |
| 2026-05-08 20:47 | 49.50701 | 8.99338 | 22018 ft | 425 kts | 4° |
| 2026-05-08 20:48 | 49.53651 | 8.99749 | 22016 ft | 425 kts | 4° |
| 2026-05-08 20:48 | 49.56596 | 9.00156 | 22015 ft | 425 kts | 4° |
| 2026-05-08 20:48 | 49.59547 | 9.00564 | 22018 ft | 425 kts | 4° |
| 2026-05-08 20:48 | 49.62494 | 9.00972 | 22016 ft | 425 kts | 4° |
| 2026-05-08 20:49 | 49.65442 | 9.01389 | 22017 ft | 425 kts | 4° |
| 2026-05-08 20:49 | 49.68392 | 9.01811 | 22022 ft | 425 kts | 4° |
| 2026-05-08 20:49 | 49.71301 | 9.02230 | 22021 ft | 424 kts | 4° |
| 2026-05-08 20:49 | 49.74253 | 9.02656 | 22024 ft | 424 kts | 4° |
| 2026-05-08 20:50 | 49.77192 | 9.03081 | 22024 ft | 424 kts | 4° |
| 2026-05-08 20:50 | 49.80134 | 9.03507 | 22024 ft | 424 kts | 4° |
| 2026-05-08 20:50 | 49.83073 | 9.03932 | 22031 ft | 424 kts | 4° |
| 2026-05-08 20:50 | 49.86015 | 9.04358 | 22027 ft | 424 kts | 4° |
| 2026-05-08 20:51 | 49.88955 | 9.04772 | 22035 ft | 424 kts | 2° |
| 2026-05-08 20:51 | 49.91862 | 9.04665 | 22034 ft | 421 kts | 351° |
| 2026-05-08 20:51 | 49.94727 | 9.03697 | 22037 ft | 419 kts | 343° |
| 2026-05-08 20:51 | 49.97514 | 9.02360 | 22037 ft | 419 kts | 340° |
| 2026-05-08 20:52 | 50.00266 | 9.00823 | 22040 ft | 419 kts | 338° |
| 2026-05-08 20:52 | 50.02994 | 8.99187 | 22037 ft | 419 kts | 337° |
| 2026-05-08 20:52 | 50.05707 | 8.97518 | 22036 ft | 418 kts | 337° |
| 2026-05-08 20:52 | 50.08382 | 8.95869 | 22038 ft | 418 kts | 337° |
| 2026-05-08 20:53 | 50.11101 | 8.94206 | 22042 ft | 418 kts | 337° |
| 2026-05-08 20:53 | 50.13875 | 8.92780 | 22041 ft | 420 kts | 345° |
| 2026-05-08 20:53 | 50.16747 | 8.91858 | 22044 ft | 420 kts | 348° |
| 2026-05-08 20:53 | 50.19635 | 8.91106 | 22039 ft | 421 kts | 350° |
| 2026-05-08 20:54 | 50.22504 | 8.90465 | 22045 ft | 421 kts | 351° |
| 2026-05-08 20:54 | 50.25417 | 8.89866 | 22047 ft | 421 kts | 351° |
| 2026-05-08 20:54 | 50.28328 | 8.89286 | 22044 ft | 421 kts | 351° |
| 2026-05-08 20:54 | 50.31244 | 8.88707 | 22043 ft | 421 kts | 351° |
| 2026-05-08 20:55 | 50.34154 | 8.88121 | 22045 ft | 421 kts | 351° |
| 2026-05-08 20:55 | 50.37061 | 8.87526 | 22046 ft | 421 kts | 351° |
| 2026-05-08 20:55 | 50.39932 | 8.86931 | 22045 ft | 421 kts | 351° |
| 2026-05-08 20:55 | 50.42840 | 8.86323 | 22052 ft | 421 kts | 351° |
| 2026-05-08 20:56 | 50.45753 | 8.85711 | 22055 ft | 421 kts | 351° |
| 2026-05-08 20:56 | 50.48671 | 8.85096 | 22051 ft | 421 kts | 351° |
| 2026-05-08 20:56 | 50.51534 | 8.84491 | 22056 ft | 421 kts | 351° |
| 2026-05-08 20:56 | 50.54444 | 8.83876 | 22063 ft | 421 kts | 351° |
| 2026-05-08 20:57 | 50.57353 | 8.83261 | 22058 ft | 421 kts | 351° |
| 2026-05-08 20:57 | 50.60252 | 8.82585 | 22059 ft | 420 kts | 346° |
| 2026-05-08 20:57 | 50.63031 | 8.81236 | 22058 ft | 417 kts | 335° |
| 2026-05-08 20:57 | 50.65558 | 8.78996 | 22068 ft | 415 kts | 325° |
| 2026-05-08 20:58 | 50.67901 | 8.76336 | 22065 ft | 415 kts | 321° |
| 2026-05-08 20:58 | 50.70145 | 8.73481 | 22072 ft | 414 kts | 319° |
| 2026-05-08 20:58 | 50.72338 | 8.70524 | 22060 ft | 414 kts | 317° |
| 2026-05-08 20:58 | 50.74491 | 8.67559 | 22070 ft | 414 kts | 317° |
| 2026-05-08 20:59 | 50.76667 | 8.64555 | 22075 ft | 415 kts | 317° |
| 2026-05-08 20:59 | 50.78845 | 8.61564 | 22066 ft | 415 kts | 318° |
| 2026-05-08 20:59 | 50.81040 | 8.58574 | 22076 ft | 415 kts | 318° |
| 2026-05-08 20:59 | 50.83234 | 8.55601 | 22064 ft | 415 kts | 318° |
| 2026-05-08 21:00 | 50.85401 | 8.52674 | 22074 ft | 415 kts | 318° |
| 2026-05-08 21:00 | 50.87600 | 8.49707 | 22074 ft | 415 kts | 319° |
| 2026-05-08 21:00 | 50.89800 | 8.46739 | 22072 ft | 415 kts | 318° |
| 2026-05-08 21:00 | 50.92006 | 8.43757 | 22066 ft | 415 kts | 318° |
| 2026-05-08 21:01 | 50.94176 | 8.40820 | 22075 ft | 415 kts | 318° |
| 2026-05-08 21:01 | 50.96369 | 8.37847 | 22070 ft | 413 kts | 318° |
| 2026-05-08 21:01 | 50.98553 | 8.34881 | 22075 ft | 411 kts | 318° |
| 2026-05-08 21:01 | 51.00758 | 8.31971 | 22075 ft | 411 kts | 323° |
| 2026-05-08 21:02 | 51.03148 | 8.29462 | 22086 ft | 412 kts | 327° |
| 2026-05-08 21:02 | 51.05607 | 8.27094 | 22082 ft | 412 kts | 328° |
| 2026-05-08 21:02 | 51.08060 | 8.24850 | 22075 ft | 412 kts | 329° |
| 2026-05-08 21:02 | 51.10579 | 8.22607 | 22073 ft | 412 kts | 330° |
| 2026-05-08 21:03 | 51.13088 | 8.20398 | 22082 ft | 412 kts | 330° |
| 2026-05-08 21:03 | 51.15602 | 8.18186 | 22082 ft | 414 kts | 330° |
| 2026-05-08 21:03 | 51.18132 | 8.15953 | 22072 ft | 415 kts | 330° |
| 2026-05-08 21:03 | 51.20629 | 8.13736 | 22083 ft | 416 kts | 330° |
| 2026-05-08 21:04 | 51.23157 | 8.11482 | 22073 ft | 416 kts | 330° |
| 2026-05-08 21:04 | 51.25685 | 8.09220 | 22066 ft | 416 kts | 330° |
| 2026-05-08 21:04 | 51.28217 | 8.06949 | 22071 ft | 416 kts | 330° |
| 2026-05-08 21:04 | 51.30740 | 8.04681 | 22050 ft | 414 kts | 329° |
| 2026-05-08 21:05 | 51.33242 | 8.02431 | 21492 ft | 409 kts | 329° |
| 2026-05-08 21:05 | 51.35742 | 8.00178 | 20374 ft | 417 kts | 330° |
| 2026-05-08 21:05 | 51.38269 | 7.97897 | 19194 ft | 426 kts | 330° |
| 2026-05-08 21:05 | 51.40876 | 7.95542 | 18094 ft | 432 kts | 330° |
| 2026-05-08 21:06 | 51.43489 | 7.93186 | 17384 ft | 426 kts | 330° |
| 2026-05-08 21:06 | 51.46028 | 7.90901 | 17116 ft | 409 kts | 330° |
| 2026-05-08 21:06 | 51.48552 | 7.89050 | 17077 ft | 390 kts | 339° |
| 2026-05-08 21:06 | 51.51089 | 7.87578 | 17079 ft | 386 kts | 340° |
| 2026-05-08 21:07 | 51.53612 | 7.86250 | 17071 ft | 387 kts | 341° |
| 2026-05-08 21:07 | 51.56191 | 7.84982 | 17072 ft | 387 kts | 342° |
| 2026-05-08 21:07 | 51.58780 | 7.83752 | 17071 ft | 387 kts | 343° |
| 2026-05-08 21:07 | 51.61360 | 7.82540 | 16836 ft | 384 kts | 343° |
| 2026-05-08 21:08 | 51.63931 | 7.81330 | 15908 ft | 388 kts | 343° |
| 2026-05-08 21:08 | 51.66550 | 7.80086 | 14761 ft | 397 kts | 342° |
| 2026-05-08 21:08 | 51.69224 | 7.78807 | 13564 ft | 401 kts | 342° |
| 2026-05-08 21:08 | 51.71868 | 7.77535 | 12175 ft | 399 kts | 342° |
| 2026-05-08 21:09 | 51.74537 | 7.76246 | 10902 ft | 399 kts | 342° |
| 2026-05-08 21:09 | 51.77206 | 7.74954 | 10048 ft | 397 kts | 343° |
| 2026-05-08 21:09 | 51.79830 | 7.73683 | 9229 ft | 391 kts | 343° |
| 2026-05-08 21:09 | 51.82416 | 7.72428 | 8447 ft | 384 kts | 342° |
| 2026-05-08 21:10 | 51.84901 | 7.71068 | 7680 ft | 377 kts | 334° |
| 2026-05-08 21:10 | 51.87068 | 7.68766 | 6942 ft | 369 kts | 322° |
| 2026-05-08 21:10 | 51.89054 | 7.66205 | 6105 ft | 359 kts | 320° |
| 2026-05-08 21:10 | 51.90925 | 7.63672 | 5441 ft | 339 kts | 320° |
| 2026-05-08 21:11 | 51.92663 | 7.61291 | 5147 ft | 312 kts | 320° |
| 2026-05-08 21:11 | 51.94226 | 7.59145 | 5100 ft | 283 kts | 320° |
| 2026-05-08 21:11 | 51.95659 | 7.57176 | 5101 ft | 255 kts | 320° |
| 2026-05-08 21:11 | 51.96948 | 7.55403 | 5114 ft | 230 kts | 320° |
| 2026-05-08 21:12 | 51.98097 | 7.53820 | 5112 ft | 204 kts | 320° |
| 2026-05-08 21:12 | 51.99113 | 7.52421 | 5093 ft | 180 kts | 320° |
| 2026-05-08 21:12 | 52.00012 | 7.51183 | 5097 ft | 162 kts | 320° |
| 2026-05-08 21:12 | 52.00841 | 7.50040 | 5087 ft | 153 kts | 320° |
| 2026-05-08 21:13 | 52.01637 | 7.48943 | 5096 ft | 147 kts | 320° |
| 2026-05-08 21:13 | 52.02459 | 7.47812 | 5174 ft | 173 kts | 320° |
| 2026-05-08 21:13 | 52.03407 | 7.46505 | 5042 ft | 174 kts | 320° |
| 2026-05-08 21:13 | 52.04274 | 7.45306 | 5069 ft | 152 kts | 320° |
| 2026-05-08 21:14 | 52.05052 | 7.44230 | 5108 ft | 146 kts | 320° |
| 2026-05-08 21:14 | 52.05811 | 7.43214 | 5120 ft | 138 kts | 326° |
| 2026-05-08 21:14 | 52.06695 | 7.42660 | 5094 ft | 137 kts | 355° |
| 2026-05-08 21:14 | 52.07608 | 7.43122 | 4630 ft | 150 kts | 44° |
| 2026-05-08 21:15 | 52.08267 | 7.44457 | 4205 ft | 153 kts | 61° |
| 2026-05-08 21:15 | 52.08681 | 7.45971 | 4035 ft | 138 kts | 70° |
| 2026-05-08 21:15 | 52.08997 | 7.47425 | 3920 ft | 138 kts | 71° |
| 2026-05-08 21:15 | 52.09303 | 7.48928 | 3494 ft | 142 kts | 73° |
| 2026-05-08 21:16 | 52.09609 | 7.50454 | 3064 ft | 144 kts | 72° |
| 2026-05-08 21:16 | 52.09958 | 7.51992 | 2607 ft | 147 kts | 71° |
| 2026-05-08 21:16 | 52.10310 | 7.53574 | 2135 ft | 150 kts | 72° |
| 2026-05-08 21:16 | 52.10657 | 7.55175 | 1733 ft | 148 kts | 73° |
| 2026-05-08 21:17 | 52.10977 | 7.56733 | 1426 ft | 140 kts | 73° |
| 2026-05-08 21:17 | 52.11264 | 7.58170 | 1188 ft | 130 kts | 74° |
| 2026-05-08 21:17 | 52.11545 | 7.59529 | 1060 ft | 126 kts | 72° |
| 2026-05-08 21:17 | 52.11844 | 7.60867 | 978 ft | 127 kts | 72° |
| 2026-05-08 21:18 | 52.12122 | 7.62236 | 846 ft | 127 kts | 72° |
| 2026-05-08 21:18 | 52.12403 | 7.63602 | 642 ft | 130 kts | 71° |
| 2026-05-08 21:18 | 52.12704 | 7.64969 | 422 ft | 128 kts | 70° |
| 2026-05-08 21:18 | 52.12999 | 7.66342 | 286 ft | 129 kts | 70° |
| 2026-05-08 21:19 | 52.13294 | 7.67692 | 169 ft | 120 kts | 71° |
| 2026-05-08 21:19 | 52.13533 | 7.68802 | 170 ft | 90 kts | 71° |
| 2026-05-08 21:19 | 52.13708 | 7.69632 | 171 ft | 65 kts | 71° |
| 2026-05-08 21:19 | 52.13753 | 7.69986 | 170 ft | 16 kts | 131° |
| 2026-05-08 21:20 | 52.13667 | 7.70027 | 171 ft | 13 kts | 187° |
| 2026-05-08 21:20 | 52.13603 | 7.69948 | 171 ft | 6 kts | 244° |
| 2026-05-08 21:20 | 52.13600 | 7.69939 | 171 ft | 6 kts | 245° |
| 2026-05-08 21:20 | 52.13572 | 7.69817 | 171 ft | 13 kts | 251° |
| 2026-05-08 21:21 | 52.13543 | 7.69683 | 171 ft | 13 kts | 250° |
| 2026-05-08 21:21 | 52.13515 | 7.69548 | 171 ft | 13 kts | 251° |
| 2026-05-08 21:21 | 52.13484 | 7.69406 | 171 ft | 15 kts | 251° |
| 2026-05-08 21:21 | 52.13429 | 7.69241 | 170 ft | 16 kts | 198° |
| 2026-05-08 21:22 | 52.13325 | 7.69282 | 170 ft | 16 kts | 161° |
| 2026-05-08 21:22 | 52.13235 | 7.69332 | 170 ft | 3 kts | 160° |
| 2026-05-08 21:22 | 52.13186 | 7.69320 | 170 ft | 7 kts | 189° |
| 2026-05-08 21:22 | 52.13167 | 7.69315 | 170 ft | 2 kts | 190° |
| 2026-05-08 21:23 | 52.13166 | 7.69315 | 170 ft | 0 kts | 189° |